createdAt,value
2019-06-01T00:01:42.333Z,16.23
2019-06-01T00:04:10.994Z,19.20
2019-06-01T00:06:40.681Z,18.07
2019-06-01T00:09:09.308Z,16.83
2019-06-01T00:11:39.090Z,20.10
2019-06-01T00:14:08.036Z,27.20
2019-06-01T00:16:36.565Z,21.80
2019-06-01T00:19:05.053Z,17.33
2019-06-01T00:21:33.484Z,14.87
2019-06-01T00:24:21.257Z,17.50
2019-06-01T00:26:49.939Z,24.70
2019-06-01T00:29:18.505Z,18.93
2019-06-01T00:31:47.925Z,22.23
2019-06-01T00:34:16.457Z,19.07
2019-06-01T00:36:45.643Z,16.40
2019-06-01T00:39:14.293Z,16.70
2019-06-01T00:41:43.877Z,16.83
2019-06-01T00:44:12.429Z,15.50
2019-06-01T00:46:40.846Z,16.40
2019-06-01T00:49:28.625Z,14.30
2019-06-01T00:51:57.049Z,17.10
2019-06-01T00:54:25.470Z,13.93
2019-06-01T00:56:54.018Z,17.83
2019-06-01T00:59:22.479Z,21.20
2019-06-01T01:01:52.131Z,16.93
2019-06-01T01:04:20.836Z,14.13
2019-06-01T01:06:50.783Z,18.53
2019-06-01T01:09:19.398Z,16.23
2019-06-01T01:11:49.058Z,12.50
2019-06-01T01:14:17.832Z,21.90
2019-06-01T01:16:47.415Z,18.90
2019-06-01T01:19:35.330Z,15.10
2019-06-01T01:22:05.136Z,14.23
2019-06-01T01:24:33.557Z,18.93
2019-06-01T01:27:02.005Z,16.60
2019-06-01T01:29:30.528Z,19.40
2019-06-01T01:31:58.953Z,17.33
2019-06-01T01:34:27.388Z,14.27
2019-06-01T01:36:56.085Z,15.63
2019-06-01T01:39:24.722Z,21.03
2019-06-01T01:41:54.166Z,17.93
2019-06-01T01:44:22.767Z,17.83
2019-06-01T01:46:52.668Z,19.63
2019-06-01T01:49:21.309Z,19.80
2019-06-01T01:51:50.406Z,16.20
2019-06-01T01:54:19.153Z,20.27
2019-06-01T01:56:47.591Z,18.13
2019-06-01T01:59:16.017Z,21.43
2019-06-01T02:01:44.450Z,26.00
2019-06-01T02:04:12.885Z,20.20
2019-06-01T02:06:41.317Z,19.30
2019-06-01T02:09:09.746Z,19.30
2019-06-01T02:11:38.181Z,24.37
2019-06-01T02:14:25.966Z,23.10
2019-06-01T02:16:54.480Z,17.13
2019-06-01T02:19:22.889Z,17.03
2019-06-01T02:22:10.665Z,23.10
2019-06-01T02:24:39.115Z,20.80
2019-06-01T02:27:07.554Z,21.53
2019-06-01T02:29:35.982Z,22.30
2019-06-01T02:32:06.506Z,24.90
2019-06-01T02:34:34.824Z,20.43
2019-06-01T02:37:04.539Z,26.80
2019-06-01T02:39:33.166Z,19.30
2019-06-01T02:42:03.246Z,22.10
2019-06-01T02:44:31.738Z,27.00
2019-06-01T02:47:01.527Z,25.13
2019-06-01T02:49:30.248Z,18.53
2019-06-01T02:51:59.268Z,23.77
2019-06-01T02:54:27.962Z,22.03
2019-06-01T02:57:09.371Z,24.80
2019-06-01T02:59:37.828Z,19.90
2019-06-01T03:02:11.909Z,18.90
2019-06-01T03:04:36.826Z,25.10
2019-06-01T03:07:07.129Z,22.73
2019-06-01T03:09:37.054Z,22.00
2019-06-01T03:12:06.290Z,20.37
2019-06-01T03:14:36.852Z,20.40
2019-06-01T03:17:05.872Z,21.67
2019-06-01T03:19:37.858Z,22.50
2019-06-01T03:22:09.008Z,20.70
2019-06-01T03:24:37.446Z,26.47
2019-06-01T03:27:06.328Z,19.47
2019-06-01T03:29:38.018Z,21.03
2019-06-01T03:32:24.172Z,24.97
2019-06-01T03:34:36.674Z,21.90
2019-06-01T03:37:05.118Z,22.57
2019-06-01T03:39:34.374Z,25.50
2019-06-01T03:42:03.321Z,25.73
2019-06-01T03:44:32.047Z,22.77
2019-06-01T03:47:01.532Z,29.63
2019-06-01T03:49:30.200Z,20.20
2019-06-01T03:51:58.686Z,25.53
2019-06-01T03:54:27.122Z,25.03
2019-06-01T03:56:55.550Z,22.23
2019-06-01T03:59:23.974Z,28.97
2019-06-01T04:01:52.410Z,25.90
2019-06-01T04:04:21.170Z,25.20
2019-06-01T04:06:49.622Z,21.80
2019-06-01T04:09:18.039Z,20.77
2019-06-01T04:11:46.472Z,18.23
2019-06-01T04:14:14.917Z,21.53
2019-06-01T04:16:43.350Z,24.23
2019-06-01T04:19:12.214Z,19.70
2019-06-01T04:21:40.904Z,25.10
2019-06-01T04:24:10.204Z,28.50
2019-06-01T04:26:38.892Z,27.23
2019-06-01T04:29:08.303Z,23.10
2019-06-01T04:31:36.763Z,21.67
2019-06-01T04:34:05.254Z,23.67
2019-06-01T04:36:33.669Z,22.63
2019-06-01T04:39:03.289Z,25.70
2019-06-01T04:41:32.013Z,21.77
2019-06-01T04:44:00.446Z,20.97
2019-06-01T04:46:28.877Z,28.17
2019-06-01T04:48:57.309Z,22.33
2019-06-01T04:51:25.738Z,26.00
2019-06-01T04:53:54.182Z,25.63
2019-06-01T04:56:22.614Z,22.80
2019-06-01T04:58:51.030Z,31.10
2019-06-01T05:01:19.471Z,29.53
2019-06-01T05:03:47.924Z,21.70
2019-06-01T05:06:16.362Z,28.00
2019-06-01T05:08:44.773Z,27.23
2019-06-01T05:11:13.536Z,29.73
2019-06-01T05:13:42.230Z,22.50
2019-06-01T05:16:12.924Z,28.53
2019-06-01T05:18:40.810Z,23.90
2019-06-01T05:21:10.359Z,21.00
2019-06-01T05:23:38.950Z,21.93
2019-06-01T05:26:09.014Z,22.33
2019-06-01T05:28:37.444Z,27.03
2019-06-01T05:31:05.898Z,19.07
2019-06-01T05:33:37.568Z,24.40
2019-06-01T05:36:04.830Z,20.17
2019-06-01T05:38:33.325Z,24.40
2019-06-01T05:41:01.769Z,22.03
2019-06-01T05:43:30.199Z,21.00
2019-06-01T05:45:58.702Z,21.27
2019-06-01T05:48:30.539Z,22.77
2019-06-01T05:50:57.330Z,27.93
2019-06-01T05:53:25.736Z,23.23
2019-06-01T05:55:54.164Z,20.50
2019-06-01T05:58:22.603Z,26.87
2019-06-01T06:00:51.027Z,26.00
2019-06-01T06:03:22.269Z,22.47
2019-06-01T06:05:49.635Z,24.00
2019-06-01T06:08:18.404Z,27.03
2019-06-01T06:10:46.833Z,24.77
2019-06-01T06:13:15.432Z,18.83
2019-06-01T06:15:44.055Z,20.43
2019-06-01T06:18:13.620Z,24.67
2019-06-01T06:20:42.299Z,19.67
2019-06-01T06:23:10.711Z,23.60
2019-06-01T06:25:58.479Z,20.27
2019-06-01T06:28:26.935Z,18.50
2019-06-01T06:30:55.357Z,15.47
2019-06-01T06:33:23.814Z,19.80
2019-06-01T06:35:52.312Z,18.20
2019-06-01T06:38:21.943Z,22.43
2019-06-01T06:40:50.629Z,23.80
2019-06-01T06:43:27.527Z,18.93
2019-06-01T06:45:49.214Z,17.63
2019-06-01T06:48:19.230Z,21.20
2019-06-01T06:50:47.939Z,18.33
2019-06-01T06:53:25.306Z,14.67
2019-06-01T06:55:46.533Z,17.00
2019-06-01T06:58:15.948Z,11.67
2019-06-01T07:00:44.448Z,16.93
2019-06-01T07:03:12.896Z,16.53
2019-06-01T07:05:41.304Z,17.10
2019-06-01T07:08:09.741Z,16.20
2019-06-01T07:10:38.187Z,17.37
2019-06-01T07:13:06.760Z,19.33
2019-06-01T07:15:35.324Z,17.83
2019-06-01T07:18:03.755Z,15.57
2019-06-01T07:20:32.187Z,15.80
2019-06-01T07:23:00.614Z,14.73
2019-06-01T07:25:29.038Z,23.70
2019-06-01T07:27:57.474Z,14.90
2019-06-01T07:30:26.340Z,17.00
2019-06-01T07:32:55.008Z,15.23
2019-06-01T07:35:25.008Z,19.10
2019-06-01T07:37:53.493Z,17.90
2019-06-01T07:40:22.974Z,15.20
2019-06-01T07:42:51.525Z,13.40
2019-06-01T07:45:20.811Z,16.07
2019-06-01T07:47:49.381Z,15.90
2019-06-01T07:50:17.801Z,14.53
2019-06-01T07:52:46.249Z,16.07
2019-06-01T07:55:14.825Z,14.90
2019-06-01T07:57:44.226Z,17.50
2019-06-01T08:00:13.929Z,17.43
2019-06-01T08:02:42.371Z,23.43
2019-06-01T08:05:10.946Z,18.93
2019-06-01T08:07:39.377Z,15.80
2019-06-01T08:10:08.261Z,16.33
2019-06-01T08:12:36.681Z,15.87
2019-06-01T08:15:08.545Z,18.10
2019-06-01T08:17:36.963Z,16.73
2019-06-01T08:20:25.935Z,18.43
2019-06-01T08:22:54.561Z,17.17
2019-06-01T08:25:24.204Z,19.03
2019-06-01T08:27:53.141Z,24.07
2019-06-01T08:30:22.587Z,18.43
2019-06-01T08:32:51.054Z,16.83
2019-06-01T08:35:19.490Z,14.00
2019-06-01T08:37:47.926Z,22.40
2019-06-01T08:40:16.414Z,16.10
2019-06-01T08:42:44.850Z,16.60
2019-06-01T08:45:13.938Z,18.40
2019-06-01T08:47:42.384Z,14.83
2019-06-01T08:50:11.908Z,19.03
2019-06-01T08:52:40.338Z,14.63
2019-06-01T08:55:09.098Z,12.90
2019-06-01T08:57:37.607Z,13.67
2019-06-01T09:00:08.550Z,17.00
2019-06-01T09:02:37.063Z,17.57
2019-06-01T09:05:21.299Z,14.13
2019-06-01T09:07:37.683Z,15.07
2019-06-01T09:10:10.780Z,16.50
2019-06-01T09:12:39.218Z,15.40
2019-06-01T09:15:09.382Z,17.97
2019-06-01T09:17:37.821Z,17.53
2019-06-01T09:20:07.031Z,14.87
2019-06-01T09:22:35.821Z,15.33
2019-06-01T09:25:05.814Z,17.20
2019-06-01T09:27:34.240Z,14.57
2019-06-01T09:30:02.755Z,15.40
2019-06-01T09:32:32.187Z,13.93
2019-06-01T09:35:00.882Z,16.90
2019-06-01T09:37:30.446Z,13.70
2019-06-01T09:39:59.151Z,15.23
2019-06-01T09:42:28.758Z,18.47
2019-06-01T09:44:57.492Z,21.00
2019-06-01T09:47:26.985Z,17.60
2019-06-01T09:49:55.623Z,16.50
2019-06-01T09:52:24.088Z,17.63
2019-06-01T09:54:52.555Z,19.67
2019-06-01T09:57:20.992Z,19.17
2019-06-01T09:59:49.444Z,13.40
2019-06-01T10:02:17.889Z,13.07
2019-06-01T10:04:46.716Z,11.70
2019-06-01T10:07:15.162Z,12.13
2019-06-01T10:09:43.581Z,12.67
2019-06-01T10:12:12.023Z,10.53
2019-06-01T10:14:40.454Z,10.90
2019-06-01T10:17:08.886Z,14.63
2019-06-01T10:19:37.374Z,10.30
2019-06-01T10:22:05.881Z,15.73
2019-06-01T10:24:35.113Z,10.43
2019-06-01T10:27:04.307Z,11.60
2019-06-01T10:29:32.738Z,15.67
2019-06-01T10:32:01.151Z,10.50
2019-06-01T10:34:29.577Z,8.30
2019-06-01T10:36:58.006Z,9.10
2019-06-01T10:39:26.441Z,9.87
2019-06-01T10:41:54.858Z,12.77
2019-06-01T10:44:23.290Z,19.93
2019-06-01T10:46:51.718Z,9.40
2019-06-01T10:49:20.142Z,12.70
2019-06-01T10:51:48.575Z,8.50
2019-06-01T10:54:17.003Z,8.70
2019-06-01T10:56:45.414Z,10.50
2019-06-01T10:59:34.183Z,7.87
2019-06-01T11:02:02.695Z,6.53
2019-06-01T11:04:31.107Z,7.90
2019-06-01T11:06:59.530Z,10.00
2019-06-01T11:09:27.967Z,8.40
2019-06-01T11:11:56.404Z,12.23
2019-06-01T11:14:24.823Z,11.17
2019-06-01T11:16:56.496Z,6.90
2019-06-01T11:19:23.404Z,8.93
2019-06-01T11:21:51.907Z,6.67
2019-06-01T11:24:20.437Z,7.07
2019-06-01T11:26:49.001Z,6.40
2019-06-01T11:29:17.432Z,15.17
2019-06-01T11:31:45.853Z,11.57
2019-06-01T11:34:14.380Z,8.83
2019-06-01T11:37:03.685Z,15.70
2019-06-01T11:39:12.942Z,7.17
2019-06-01T11:41:42.550Z,8.43
2019-06-01T11:44:11.266Z,13.43
2019-06-01T11:46:41.051Z,8.50
2019-06-01T11:49:09.700Z,6.67
2019-06-01T11:51:39.388Z,11.57
2019-06-01T11:54:08.029Z,8.97
2019-06-01T11:56:37.248Z,8.90
2019-06-01T11:59:05.924Z,5.93
2019-06-01T12:01:35.548Z,9.80
2019-06-01T12:04:04.481Z,5.67
2019-06-01T12:06:32.930Z,4.33
2019-06-01T12:09:01.362Z,22.33
2019-06-01T12:11:29.767Z,8.83
2019-06-01T12:13:58.231Z,8.63
2019-06-01T12:16:26.631Z,7.73
2019-06-01T12:18:55.059Z,7.83
2019-06-01T12:21:23.466Z,8.23
2019-06-01T12:23:51.899Z,9.03
2019-06-01T12:26:20.310Z,6.57
2019-06-01T12:28:48.771Z,6.87
2019-06-01T12:31:17.187Z,7.13
2019-06-01T12:33:46.401Z,6.90
2019-06-01T12:36:14.910Z,8.03
2019-06-01T12:38:53.051Z,5.13
2019-06-01T12:41:22.806Z,7.00
2019-06-01T12:44:08.814Z,8.27
2019-06-01T12:46:40.081Z,4.73
2019-06-01T12:49:08.674Z,6.50
2019-06-01T12:51:37.096Z,8.03
2019-06-01T12:54:06.740Z,7.50
2019-06-01T12:56:35.162Z,6.80
2019-06-01T12:59:03.895Z,6.33
2019-06-01T13:01:32.394Z,8.00
2019-06-01T13:04:00.855Z,5.70
2019-06-01T13:06:29.291Z,5.23
2019-06-01T13:08:57.715Z,5.87
2019-06-01T13:11:26.143Z,4.50
2019-06-01T13:13:54.569Z,9.53
2019-06-01T13:16:22.999Z,7.00
2019-06-01T13:18:51.736Z,7.20
2019-06-01T13:21:20.388Z,5.53
2019-06-01T13:23:49.660Z,5.13
2019-06-01T13:26:18.329Z,5.10
2019-06-01T13:28:46.772Z,6.70
2019-06-01T13:31:15.183Z,5.20
2019-06-01T13:33:44.455Z,9.57
2019-06-01T13:36:13.186Z,4.70
2019-06-01T13:38:42.496Z,5.03
2019-06-01T13:41:11.080Z,9.03
2019-06-01T13:43:39.488Z,7.00
2019-06-01T13:46:07.990Z,4.00
2019-06-01T13:48:36.407Z,7.07
2019-06-01T13:51:04.943Z,5.30
2019-06-01T13:53:33.387Z,3.60
2019-06-01T13:56:01.801Z,3.60
2019-06-01T13:58:30.232Z,2.50
2019-06-01T14:00:58.649Z,3.50
2019-06-01T14:03:27.064Z,2.63
2019-06-01T14:05:55.508Z,2.70
2019-06-01T14:08:28.992Z,5.20
2019-06-01T14:10:55.454Z,1.95
2019-06-01T14:13:24.072Z,1.77
2019-06-01T14:15:53.623Z,1.92
2019-06-01T14:18:22.312Z,2.27
2019-06-01T14:20:51.735Z,1.55
2019-06-01T14:23:20.407Z,1.30
2019-06-01T14:25:50.086Z,1.25
2019-06-01T14:28:18.669Z,1.98
2019-06-01T14:30:48.323Z,0.85
2019-06-01T14:33:17.072Z,0.80
2019-06-01T14:35:46.560Z,3.15
2019-06-01T14:38:15.321Z,3.25
2019-06-01T14:40:43.752Z,1.10
2019-06-01T14:43:12.176Z,3.55
2019-06-01T14:45:40.613Z,1.20
2019-06-01T14:48:09.037Z,1.25
2019-06-01T14:50:37.461Z,1.72
2019-06-01T14:53:05.888Z,2.02
2019-06-01T14:55:34.317Z,1.30
2019-06-01T14:58:02.751Z,1.17
2019-06-01T15:00:31.181Z,1.55
2019-06-01T15:02:59.622Z,1.30
2019-06-01T15:05:28.039Z,2.72
2019-06-01T15:07:57.160Z,2.30
2019-06-01T15:10:26.157Z,1.45
2019-06-01T15:13:00.328Z,1.85
2019-06-01T15:15:24.703Z,1.30
2019-06-01T15:17:53.393Z,1.60
2019-06-01T15:20:22.022Z,3.20
2019-06-01T15:22:50.476Z,1.35
2019-06-01T15:25:18.951Z,2.58
2019-06-01T15:27:47.367Z,3.00
2019-06-01T15:30:16.275Z,1.00
2019-06-01T15:32:44.690Z,1.50
2019-06-01T15:35:14.159Z,1.47
2019-06-01T15:37:42.576Z,2.70
2019-06-01T15:40:11.760Z,2.75
2019-06-01T15:42:40.170Z,2.05
2019-06-01T15:45:10.051Z,1.30
2019-06-01T15:47:38.485Z,1.25
2019-06-01T15:50:08.168Z,1.87
2019-06-01T15:52:36.610Z,1.95
2019-06-01T15:55:08.844Z,1.80
2019-06-01T15:57:37.344Z,1.80
2019-06-01T16:00:10.924Z,5.83
2019-06-01T16:02:40.389Z,9.73
2019-06-01T16:05:09.451Z,2.50
2019-06-01T16:07:37.939Z,2.60
2019-06-01T16:10:08.374Z,3.13
2019-06-01T16:12:37.231Z,4.73
2019-06-01T16:15:08.176Z,4.70
2019-06-01T16:17:36.597Z,11.37
2019-06-01T16:20:08.806Z,3.57
2019-06-01T16:22:37.333Z,11.13
2019-06-01T16:25:07.761Z,4.30
2019-06-01T16:27:36.179Z,4.30
2019-06-01T16:30:09.704Z,8.30
2019-06-01T16:32:39.521Z,3.60
2019-06-01T16:35:08.429Z,3.67
2019-06-01T16:37:37.333Z,12.23
2019-06-01T16:40:10.355Z,8.83
2019-06-01T16:42:37.943Z,3.67
2019-06-01T16:45:07.696Z,7.83
2019-06-01T16:47:36.224Z,5.47
2019-06-01T16:50:07.141Z,4.07
2019-06-01T16:52:35.674Z,23.33
2019-06-01T16:55:06.965Z,5.87
2019-06-01T16:57:54.864Z,3.80
2019-06-01T17:00:23.369Z,4.30
2019-06-01T17:02:51.805Z,7.20
2019-06-01T17:05:20.221Z,4.40
2019-06-01T17:07:48.677Z,4.43
2019-06-01T17:10:25.655Z,5.53
2019-06-01T17:12:47.527Z,4.40
2019-06-01T17:15:16.378Z,3.50
2019-06-01T17:17:44.810Z,3.73
2019-06-01T17:20:43.461Z,9.80
2019-06-01T17:23:26.304Z,5.30
2019-06-01T17:25:42.084Z,8.03
2019-06-01T17:28:10.566Z,4.67
2019-06-01T17:30:39.190Z,3.60
2019-06-01T17:33:08.560Z,13.27
2019-06-01T17:35:37.420Z,4.90
2019-06-01T17:38:07.266Z,11.00
2019-06-01T17:40:39.675Z,5.30
2019-06-01T17:43:06.970Z,8.13
2019-06-01T17:45:35.699Z,4.00
2019-06-01T17:48:19.387Z,5.27
2019-06-01T17:50:35.359Z,8.70
2019-06-01T17:53:04.661Z,4.10
2019-06-01T17:55:34.795Z,4.43
2019-06-01T17:58:03.580Z,3.50
2019-06-01T18:00:32.091Z,4.23
2019-06-01T18:03:01.576Z,3.87
2019-06-01T18:05:30.367Z,4.17
2019-06-01T18:07:58.803Z,4.37
2019-06-01T18:10:28.562Z,7.17
2019-06-01T18:12:57.066Z,6.13
2019-06-01T18:15:25.565Z,4.10
2019-06-01T18:17:53.983Z,4.50
2019-06-01T18:20:41.815Z,7.53
2019-06-01T18:23:11.450Z,5.10
2019-06-01T18:25:40.430Z,3.03
2019-06-01T18:28:15.056Z,4.37
2019-06-01T18:30:39.139Z,4.60
2019-06-01T18:33:08.931Z,6.77
2019-06-01T18:35:37.523Z,6.40
2019-06-01T18:38:06.020Z,6.57
2019-06-01T18:40:34.719Z,4.13
2019-06-01T18:43:06.231Z,5.07
2019-06-01T18:45:36.699Z,8.80
2019-06-01T18:48:06.149Z,3.17
2019-06-01T18:50:34.732Z,7.67
2019-06-01T18:53:03.912Z,4.90
2019-06-01T18:55:35.276Z,6.83
2019-06-01T18:58:03.942Z,7.93
2019-06-01T19:00:32.648Z,5.13
2019-06-01T19:03:01.085Z,3.90
2019-06-01T19:05:29.511Z,4.10
2019-06-01T19:07:57.935Z,3.20
2019-06-01T19:10:26.387Z,7.73
2019-06-01T19:12:54.803Z,4.60
2019-06-01T19:15:28.561Z,7.03
2019-06-01T19:17:54.142Z,12.10
2019-06-01T19:20:22.555Z,4.97
2019-06-01T19:22:51.502Z,8.03
2019-06-01T19:25:20.172Z,4.40
2019-06-01T19:27:48.615Z,4.97
2019-06-01T19:30:37.849Z,7.90
2019-06-01T19:33:10.885Z,7.23
2019-06-01T19:35:38.056Z,5.43
2019-06-01T19:38:07.050Z,5.43
2019-06-01T19:40:37.700Z,6.17
2019-06-01T19:43:07.350Z,5.50
2019-06-01T19:45:36.111Z,6.83
2019-06-01T19:48:05.855Z,8.17
2019-06-01T19:50:34.441Z,4.00
2019-06-01T19:53:02.896Z,7.10
2019-06-01T19:55:31.368Z,6.13
2019-06-01T19:58:00.573Z,10.10
2019-06-01T20:00:29.008Z,10.63
2019-06-01T20:02:57.424Z,9.93
2019-06-01T20:05:26.004Z,5.87
2019-06-01T20:07:54.430Z,8.63
2019-06-01T20:10:22.848Z,5.90
2019-06-01T20:12:51.259Z,7.77
2019-06-01T20:15:19.731Z,10.03
2019-06-01T20:17:48.197Z,17.20
2019-06-01T20:20:19.590Z,9.67
2019-06-01T20:22:48.284Z,9.87
2019-06-01T20:25:17.908Z,8.00
2019-06-01T20:27:46.328Z,10.40
2019-06-01T20:30:15.902Z,9.90
2019-06-01T20:32:44.400Z,10.27
2019-06-01T20:35:13.909Z,8.03
2019-06-01T20:37:42.488Z,9.63
2019-06-01T20:40:12.176Z,11.70
2019-06-01T20:42:40.864Z,9.80
2019-06-01T20:45:10.548Z,6.80
2019-06-01T20:47:38.982Z,10.17
2019-06-01T20:50:09.149Z,11.70
2019-06-01T20:52:37.735Z,7.87
2019-06-01T20:55:07.777Z,8.97
2019-06-01T20:57:36.198Z,11.13
2019-06-01T21:00:11.218Z,9.30
2019-06-01T21:02:39.664Z,11.27
2019-06-01T21:05:08.444Z,8.47
2019-06-01T21:07:36.863Z,14.10
2019-06-01T21:10:07.808Z,8.47
2019-06-01T21:12:44.773Z,13.50
2019-06-01T21:15:07.669Z,13.43
2019-06-01T21:17:36.189Z,25.70
2019-06-01T21:20:07.755Z,20.13
2019-06-01T21:22:36.221Z,15.63
2019-06-01T21:25:07.113Z,9.40
2019-06-01T21:27:35.575Z,11.23
2019-06-01T21:30:09.270Z,10.97
2019-06-01T21:32:37.701Z,9.67
2019-06-01T21:35:06.667Z,11.50
2019-06-01T21:37:35.105Z,11.13
2019-06-01T21:43:06.774Z,9.80
2019-06-01T21:45:23.643Z,11.40
2019-06-01T21:47:52.166Z,9.00
2019-06-01T21:50:21.902Z,12.23
2019-06-01T21:53:09.933Z,18.33
2019-06-01T21:55:38.353Z,17.20
2019-06-01T21:58:06.786Z,14.13
2019-06-01T22:00:37.925Z,12.80
2019-06-01T22:03:08.310Z,11.13
2019-06-01T22:05:36.970Z,13.23
2019-06-01T22:08:05.634Z,9.30
2019-06-01T22:10:34.081Z,13.37
2019-06-01T22:13:17.582Z,13.23
2019-06-01T22:15:32.653Z,9.37
2019-06-01T22:18:01.088Z,13.40
2019-06-01T22:20:29.509Z,13.90
2019-06-01T22:22:57.941Z,14.37
2019-06-01T22:25:26.661Z,14.93
2019-06-01T22:27:55.098Z,15.80
2019-06-01T22:30:24.819Z,15.83
2019-06-01T22:32:53.752Z,10.83
2019-06-01T22:35:22.779Z,12.33
2019-06-01T22:37:51.401Z,12.40
2019-06-01T22:40:20.871Z,16.07
2019-06-01T22:42:49.553Z,10.37
2019-06-01T22:45:18.026Z,13.93
2019-06-01T22:47:46.450Z,11.50
2019-06-01T22:50:14.936Z,12.13
2019-06-01T22:52:43.378Z,11.60
2019-06-01T22:55:11.859Z,16.20
2019-06-01T22:57:43.155Z,13.23
2019-06-01T23:00:11.090Z,13.73
2019-06-01T23:02:39.507Z,16.87
2019-06-01T23:05:08.262Z,10.30
2019-06-01T23:07:49.266Z,13.77
2019-06-01T23:10:17.703Z,14.73
2019-06-01T23:12:46.144Z,15.33
2019-06-01T23:15:14.592Z,13.97
2019-06-01T23:17:43.008Z,17.37
2019-06-01T23:20:11.768Z,13.50
2019-06-01T23:22:40.208Z,16.13
2019-06-01T23:25:08.980Z,10.60
2019-06-01T23:27:37.414Z,12.10
2019-06-01T23:30:08.780Z,17.50
2019-06-01T23:32:37.295Z,16.13
2019-06-01T23:35:06.572Z,14.23
2019-06-01T23:37:34.997Z,13.93
2019-06-01T23:40:04.481Z,14.17
2019-06-01T23:42:33.019Z,11.63
2019-06-01T23:45:01.513Z,18.00
2019-06-01T23:47:43.257Z,14.87
2019-06-01T23:50:11.773Z,12.93
2019-06-01T23:52:40.217Z,16.00
2019-06-01T23:55:08.710Z,13.47
2019-06-01T23:57:37.140Z,15.00
